createdAt,value
2023-04-07T00:01:26.618Z,398.70
2023-04-07T00:06:25.812Z,398.70
2023-04-07T00:11:25.071Z,398.70
2023-04-07T00:16:24.348Z,398.70
2023-04-07T00:21:24.637Z,398.70
2023-04-07T00:26:22.863Z,398.70
2023-04-07T00:31:23.156Z,398.70
2023-04-07T00:36:21.474Z,398.70
2023-04-07T00:41:20.751Z,398.70
2023-04-07T00:46:20.080Z,424.10
2023-04-07T00:51:19.343Z,423.60
2023-04-07T00:56:18.619Z,408.90
2023-04-07T01:01:19.894Z,422.90
2023-04-07T01:06:18.128Z,427.00
2023-04-07T01:11:17.414Z,426.00
2023-04-07T01:16:15.693Z,418.70
2023-04-07T01:21:14.960Z,419.80
2023-04-07T01:26:14.226Z,427.70
2023-04-07T01:31:14.581Z,408.50
2023-04-07T01:36:13.661Z,365.40
2023-04-07T01:41:11.922Z,404.20
2023-04-07T01:46:11.187Z,398.70
2023-04-07T01:51:10.482Z,417.80
2023-04-07T01:56:09.725Z,425.30
2023-04-07T02:01:11.038Z,405.90
2023-04-07T02:06:09.358Z,420.90
2023-04-07T02:11:07.448Z,413.50
2023-04-07T02:16:07.820Z,435.00
2023-04-07T02:21:07.897Z,414.10
2023-04-07T02:26:05.172Z,411.50
2023-04-07T02:31:04.472Z,407.40
2023-04-07T02:36:03.745Z,415.20
2023-04-07T02:41:05.031Z,409.00
2023-04-07T02:46:03.323Z,412.50
2023-04-07T02:51:01.599Z,418.70
2023-04-07T02:56:00.897Z,398.50
2023-04-07T03:01:01.219Z,286.80
2023-04-07T03:05:59.454Z,426.40
2023-04-07T03:11:00.685Z,420.70
2023-04-07T03:15:58.968Z,427.60
2023-04-07T03:20:59.253Z,426.10
2023-04-07T03:25:57.648Z,424.10
2023-04-07T03:30:56.742Z,429.70
2023-04-07T03:35:55.048Z,404.90
2023-04-07T03:40:55.299Z,433.90
2023-04-07T03:45:53.640Z,408.00
2023-04-07T03:50:52.681Z,419.50
2023-04-07T03:55:53.950Z,422.80
2023-04-07T04:00:51.211Z,425.50
2023-04-07T04:05:52.504Z,422.30
2023-04-07T04:10:49.798Z,412.60
2023-04-07T04:15:49.159Z,441.10
2023-04-07T04:20:49.245Z,424.20
2023-04-07T04:25:47.536Z,414.30
2023-04-07T04:30:47.814Z,422.40
2023-04-07T04:35:47.064Z,419.00
2023-04-07T04:40:45.359Z,426.00
2023-04-07T04:45:44.659Z,420.60
2023-04-07T04:50:43.931Z,420.80
2023-04-07T04:55:44.216Z,442.90
2023-04-07T05:00:43.538Z,416.50
2023-04-07T05:05:43.644Z,411.00
2023-04-07T05:10:40.923Z,408.50
2023-04-07T05:15:40.160Z,415.80
2023-04-07T05:20:40.453Z,413.30
2023-04-07T05:25:38.724Z,343.30
2023-04-07T05:30:38.073Z,409.50
2023-04-07T05:35:38.146Z,357.20
2023-04-07T05:40:37.818Z,393.10
2023-04-07T05:45:35.663Z,379.90
2023-04-07T05:50:34.765Z,391.90
2023-04-07T05:55:35.022Z,417.20
2023-04-07T06:00:33.307Z,419.50
2023-04-07T06:05:32.583Z,408.70
2023-04-07T06:10:33.855Z,439.80
2023-04-07T06:15:33.106Z,409.10
2023-04-07T06:20:31.357Z,433.70
2023-04-07T06:25:30.645Z,413.00
2023-04-07T06:30:28.923Z,413.30
2023-04-07T06:35:29.056Z,410.20
2023-04-07T06:40:27.332Z,413.50
2023-04-07T06:45:26.596Z,438.60
2023-04-07T06:50:26.833Z,413.00
2023-04-07T06:55:25.133Z,417.50
2023-04-07T07:00:24.367Z,426.40
2023-04-07T07:05:23.616Z,397.20
2023-04-07T07:10:23.912Z,408.50
2023-04-07T07:15:23.208Z,414.50
2023-04-07T07:20:21.625Z,404.50
2023-04-07T07:25:21.713Z,416.80
2023-04-07T07:30:19.997Z,388.70
2023-04-07T07:35:20.311Z,455.60
2023-04-07T07:40:20.643Z,415.70
2023-04-07T07:45:19.150Z,398.80
2023-04-07T07:50:19.282Z,337.30
2023-04-07T07:55:17.391Z,395.70
2023-04-07T08:00:16.634Z,345.10
2023-04-07T08:05:16.914Z,303.80
2023-04-07T08:10:15.165Z,409.80
2023-04-07T08:15:13.428Z,405.50
2023-04-07T08:20:12.694Z,429.70
2023-04-07T08:25:11.992Z,339.80
2023-04-07T08:30:12.242Z,347.20
2023-04-07T08:35:10.568Z,496.00
2023-04-07T08:40:09.818Z,496.00
2023-04-07T08:45:09.105Z,439.30
2023-04-07T08:50:09.381Z,437.40
2023-04-07T08:55:08.626Z,401.60
2023-04-07T09:00:07.892Z,432.90
2023-04-07T09:05:07.217Z,424.30
2023-04-07T09:10:06.471Z,365.50
2023-04-07T09:15:04.740Z,356.30
2023-04-07T09:20:04.008Z,356.30
2023-04-07T09:25:04.274Z,356.30
2023-04-07T09:30:02.527Z,356.30
2023-04-07T09:35:02.805Z,356.30
2023-04-07T09:40:03.077Z,356.30
2023-04-07T09:45:00.331Z,356.30
2023-04-07T09:50:00.588Z,356.30
2023-04-07T09:54:58.841Z,356.30
2023-04-07T10:00:00.123Z,356.30
2023-04-07T10:04:57.355Z,356.30
2023-04-07T10:09:57.669Z,356.30
2023-04-07T10:14:56.941Z,356.30
2023-04-07T10:19:57.250Z,356.30
2023-04-07T10:24:54.539Z,356.30
2023-04-07T10:29:53.859Z,356.30
2023-04-07T10:34:53.167Z,356.30
2023-04-07T10:39:52.474Z,356.30
2023-04-07T10:44:52.759Z,356.30
2023-04-07T10:49:53.034Z,356.30
2023-04-07T10:54:50.313Z,356.30
2023-04-07T10:59:49.655Z,356.30
2023-04-07T11:04:49.827Z,356.30
2023-04-07T11:09:47.978Z,356.30
2023-04-07T11:14:46.278Z,356.30
2023-04-07T11:19:47.454Z,356.30
2023-04-07T11:24:46.722Z,356.30
2023-04-07T11:29:45.901Z,356.30
2023-04-07T11:34:45.107Z,356.30
2023-04-07T11:39:45.275Z,356.30
2023-04-07T11:44:42.413Z,356.30
2023-04-07T11:49:41.570Z,356.30
2023-04-07T11:54:41.731Z,356.30
2023-04-07T11:59:39.879Z,356.30
2023-04-07T12:04:39.191Z,356.30
2023-04-07T12:09:38.444Z,356.30
2023-04-07T12:14:37.576Z,356.30
2023-04-07T12:19:36.987Z,356.30
2023-04-07T12:24:36.170Z,356.30
2023-04-07T12:29:35.310Z,356.30
2023-04-07T12:34:34.433Z,356.30
2023-04-07T12:39:34.804Z,356.30
2023-04-07T12:44:32.923Z,356.30
2023-04-07T12:49:32.269Z,356.30
2023-04-07T12:54:31.593Z,356.30
2023-04-07T12:59:31.028Z,356.30
2023-04-07T13:04:31.309Z,356.30
2023-04-07T13:09:30.397Z,356.30
2023-04-07T13:14:28.501Z,356.30
2023-04-07T13:19:27.647Z,356.30
2023-04-07T13:24:26.790Z,356.30
2023-04-07T13:29:25.922Z,356.30
2023-04-07T13:34:26.249Z,356.30
2023-04-07T13:39:26.593Z,356.30
2023-04-07T13:44:24.913Z,356.30
2023-04-07T13:49:25.278Z,356.30
2023-04-07T13:54:24.377Z,356.30
2023-04-07T13:59:22.745Z,356.30
2023-04-07T14:04:20.918Z,356.30
2023-04-07T14:09:22.011Z,356.30
2023-04-07T14:14:19.357Z,356.30
2023-04-07T14:19:18.506Z,356.30
2023-04-07T14:24:17.639Z,356.30
2023-04-07T14:29:20.092Z,356.30
2023-04-07T14:34:17.221Z,356.30
2023-04-07T14:39:15.415Z,356.30
2023-04-07T14:44:14.684Z,356.30
2023-04-07T14:49:14.053Z,356.30
2023-04-07T14:54:13.126Z,356.30
2023-04-07T14:59:12.305Z,356.30
2023-04-07T15:04:10.991Z,356.30
2023-04-07T15:09:10.900Z,356.30
2023-04-07T15:14:09.206Z,356.30
2023-04-07T15:19:09.518Z,356.30
2023-04-07T15:24:08.734Z,356.30
2023-04-07T15:29:08.066Z,356.30
2023-04-07T15:34:06.380Z,363.60
2023-04-07T15:39:06.618Z,402.40
2023-04-07T15:44:04.888Z,406.90
2023-04-07T15:49:04.970Z,423.70
2023-04-07T15:54:06.260Z,403.60
2023-04-07T15:59:04.524Z,380.50
2023-04-07T16:04:04.901Z,386.20
2023-04-07T16:09:01.995Z,402.30
2023-04-07T16:14:01.294Z,380.60
2023-04-07T16:19:00.751Z,376.80
2023-04-07T16:23:59.810Z,403.60
2023-04-07T16:29:00.053Z,413.30
2023-04-07T16:33:58.320Z,423.10
2023-04-07T16:38:57.595Z,376.40
2023-04-07T16:43:56.970Z,416.20
2023-04-07T16:48:56.007Z,408.80
2023-04-07T16:53:55.271Z,398.20
2023-04-07T16:58:54.514Z,515.40
2023-04-07T17:03:54.903Z,408.10
2023-04-07T17:08:57.008Z,375.90
2023-04-07T17:13:52.222Z,414.00
2023-04-07T17:18:52.463Z,419.00
2023-04-07T17:23:50.926Z,413.00
2023-04-07T17:28:50.956Z,411.50
2023-04-07T17:33:48.519Z,403.20
2023-04-07T17:38:48.501Z,442.70
2023-04-07T17:43:48.026Z,455.00
2023-04-07T17:48:47.125Z,409.00
2023-04-07T17:53:46.566Z,423.10
2023-04-07T17:58:46.735Z,413.50
2023-04-07T18:03:43.997Z,455.10
2023-04-07T18:08:46.052Z,434.00
2023-04-07T18:13:43.301Z,405.10
2023-04-07T18:18:43.594Z,390.70
2023-04-07T18:23:43.887Z,411.60
2023-04-07T18:28:41.146Z,426.30
2023-04-07T18:33:40.465Z,412.50
2023-04-07T18:38:39.754Z,412.50
2023-04-07T18:43:40.048Z,375.00
2023-04-07T18:48:39.352Z,352.60
2023-04-07T18:53:37.616Z,352.60
2023-04-07T18:58:36.973Z,352.60
2023-04-07T19:03:36.404Z,352.60
2023-04-07T19:08:35.602Z,352.60
2023-04-07T19:13:35.623Z,352.60
2023-04-07T19:18:33.918Z,352.60
2023-04-07T19:23:33.333Z,352.60
2023-04-07T19:28:33.600Z,352.60
2023-04-07T19:33:33.646Z,352.60
2023-04-07T19:38:30.963Z,352.60
2023-04-07T19:43:32.214Z,352.60
2023-04-07T19:48:30.456Z,352.60
2023-04-07T19:53:30.685Z,352.60
2023-04-07T19:58:28.932Z,352.60
2023-04-07T20:03:27.272Z,340.60
2023-04-07T20:08:26.360Z,435.10
2023-04-07T20:13:26.643Z,438.50
2023-04-07T20:18:24.111Z,406.70
2023-04-07T20:23:24.229Z,413.10
2023-04-07T20:28:23.501Z,424.10
2023-04-07T20:33:23.166Z,423.80
2023-04-07T20:38:23.049Z,399.40
2023-04-07T20:43:21.324Z,399.40
2023-04-07T20:48:21.554Z,399.40
2023-04-07T20:53:20.811Z,399.40
2023-04-07T20:58:20.034Z,399.40
2023-04-07T21:03:19.460Z,399.40
2023-04-07T21:08:17.684Z,399.40
2023-04-07T21:13:16.790Z,399.40
2023-04-07T21:18:16.042Z,399.40
2023-04-07T21:23:15.332Z,399.40
2023-04-07T21:28:14.603Z,399.40
2023-04-07T21:33:13.891Z,399.40
2023-04-07T21:38:14.175Z,399.40
2023-04-07T21:43:13.433Z,399.40
2023-04-07T21:48:11.698Z,399.40
2023-04-07T21:53:10.996Z,399.40
2023-04-07T21:58:11.270Z,399.40
2023-04-07T22:03:10.688Z,399.40
2023-04-07T22:08:09.781Z,399.40
2023-04-07T22:13:10.088Z,399.40
2023-04-07T22:18:08.385Z,399.40
2023-04-07T22:23:07.651Z,399.40
2023-04-07T22:28:05.912Z,399.40
2023-04-07T22:33:05.404Z,399.40
2023-04-07T22:38:06.532Z,399.40
2023-04-07T22:43:03.791Z,399.40
2023-04-07T22:48:05.075Z,399.40
2023-04-07T22:53:03.368Z,399.40
2023-04-07T22:58:01.654Z,399.40
2023-04-07T23:03:01.059Z,399.40
2023-04-07T23:08:00.235Z,399.40
2023-04-07T23:13:01.541Z,399.40
2023-04-07T23:17:58.841Z,399.40
2023-04-07T23:22:58.089Z,399.40
2023-04-07T23:27:58.421Z,399.40
2023-04-07T23:32:57.709Z,399.40
2023-04-07T23:37:59.973Z,399.40
2023-04-07T23:42:56.230Z,399.40
2023-04-07T23:47:53.592Z,399.40
2023-04-07T23:52:54.743Z,399.40
2023-04-07T23:57:52.898Z,399.40
